Time;durP1;ratioP1;P1;durP2;ratioP2;P2;SDS_P1;SDS_P2;PMS_P1;PMS_P2;Temp;Humidity;BMP_temperature;BMP_pressure;BME280_temperature;BME280_humidity;BME280_pressure;Samples;Min_cycle;Max_cycle;Signal;HPM_P1;HPM_P2
2022/09/25 00:00:57;;;;;;;15.02;2.65;;;13.80;81.20;;;;;;9175482;19;20452;-64
2022/09/25 00:04:02;;;;;;;3.58;1.25;;;13.70;81.10;;;;;;9177860;19;20033;-64
2022/09/25 00:07:05;;;;;;;6.38;2.00;;;13.70;81.10;;;;;;9184596;19;20018;-64
2022/09/25 00:10:11;;;;;;;10.23;1.40;;;13.60;81.00;;;;;;9182894;19;20015;-65
2022/09/25 00:13:16;;;;;;;5.32;1.67;;;13.60;81.00;;;;;;9185925;19;20025;-64
2022/09/25 00:16:23;;;;;;;8.80;1.58;;;13.60;81.00;;;;;;9185625;19;20034;-63
2022/09/25 00:22:43;;;;;;;6.18;1.58;;;13.50;81.00;;;;;;9185990;19;20086;-64
2022/09/25 00:25:58;;;;;;;6.40;1.73;;;13.40;80.90;;;;;;9184568;19;20018;-63
2022/09/25 00:29:02;;;;;;;12.15;1.90;;;13.40;81.00;;;;;;9185662;19;20024;-63
2022/09/25 00:32:07;;;;;;;5.93;1.83;;;13.30;81.00;;;;;;9186101;19;20014;-64
2022/09/25 00:35:11;;;;;;;10.30;1.88;;;13.30;80.90;;;;;;9185414;19;20014;-64
2022/09/25 00:38:14;;;;;;;7.25;2.00;;;13.20;80.90;;;;;;9184733;19;20018;-64
2022/09/25 00:41:24;;;;;;;4.25;1.58;;;13.20;80.90;;;;;;9187262;19;20082;-62
2022/09/25 00:44:55;;;;;;;6.43;1.73;;;13.10;80.90;;;;;;9185704;19;20018;-63
2022/09/25 00:48:01;;;;;;;6.28;1.60;;;13.00;80.90;;;;;;9185438;19;20088;-63
2022/09/25 00:51:06;;;;;;;8.52;1.90;;;13.00;80.90;;;;;;9183300;19;20022;-62
2022/09/25 00:54:16;;;;;;;5.75;2.25;;;12.90;80.90;;;;;;9184738;19;20044;-63
2022/09/25 00:57:25;;;;;;;15.00;2.22;;;12.90;80.90;;;;;;9180349;19;20011;-63
2022/09/25 01:00:29;;;;;;;5.90;2.05;;;12.80;80.90;;;;;;9183657;19;20094;-62
2022/09/25 01:03:33;;;;;;;9.77;2.40;;;12.80;80.90;;;;;;9181618;19;20039;-64
2022/09/25 01:06:36;;;;;;;7.53;1.67;;;12.70;80.90;;;;;;9182174;19;20024;-63
2022/09/25 01:09:40;;;;;;;6.55;2.28;;;12.70;80.90;;;;;;9182739;19;20531;-63
2022/09/25 01:12:48;;;;;;;7.15;1.67;;;12.60;80.80;;;;;;9182348;19;20483;-65
2022/09/25 01:15:58;;;;;;;4.82;1.80;;;12.50;80.90;;;;;;9181993;19;20056;-64
2022/09/25 01:19:16;;;;;;;9.32;2.25;;;12.50;80.90;;;;;;9183554;19;20085;-63
2022/09/25 01:22:28;;;;;;;9.05;2.10;;;12.40;80.80;;;;;;9184151;19;20015;-63
2022/09/25 01:25:45;;;;;;;7.18;2.08;;;12.40;80.90;;;;;;9182570;19;20015;-63
2022/09/25 01:29:02;;;;;;;5.10;2.03;;;12.30;80.90;;;;;;9184050;19;20014;-63
2022/09/25 01:32:12;;;;;;;12.13;2.13;;;12.20;80.90;;;;;;9183252;19;20047;-65
2022/09/25 01:35:21;;;;;;;7.00;2.05;;;12.20;80.90;;;;;;9183851;19;20015;-63
2022/09/25 01:38:31;;;;;;;10.80;1.92;;;12.10;80.90;;;;;;9183874;19;20030;-63
2022/09/25 01:41:43;;;;;;;7.47;2.33;;;12.10;81.00;;;;;;9183968;19;20019;-64
2022/09/25 01:44:55;;;;;;;4.72;1.92;;;12.00;80.90;;;;;;9181973;19;20018;-63
2022/09/25 01:48:01;;;;;;;10.55;2.20;;;12.00;81.00;;;;;;9183055;19;20512;-63
2022/09/25 01:51:09;;;;;;;8.65;2.15;;;11.90;81.00;;;;;;9183566;19;20503;-63
2022/09/25 01:54:17;;;;;;;9.38;2.15;;;11.90;81.00;;;;;;9182472;19;20022;-62
2022/09/25 01:57:26;;;;;;;6.15;2.25;;;11.90;81.00;;;;;;9177619;19;20015;-63
2022/09/25 02:00:35;;;;;;;10.38;2.25;;;11.80;81.10;;;;;;9180668;19;20096;-63
2022/09/25 02:03:43;;;;;;;10.45;2.45;;;11.80;81.10;;;;;;9182751;19;20492;-63
2022/09/25 02:06:50;;;;;;;3.40;1.85;;;11.70;81.10;;;;;;9180137;19;20030;-63
2022/09/25 02:09:58;;;;;;;5.03;2.15;;;11.70;81.10;;;;;;9179590;19;20025;-62
2022/09/25 02:13:09;;;;;;;11.63;3.13;;;11.60;81.10;;;;;;9182906;19;20496;-63
2022/09/25 02:16:20;;;;;;;13.68;3.40;;;11.60;81.10;;;;;;9181526;19;20018;-64
2022/09/25 02:22:42;;;;;;;6.28;2.20;;;11.50;81.10;;;;;;9181557;19;20031;-63
2022/09/25 02:25:50;;;;;;;8.88;2.05;;;11.50;81.10;;;;;;9181181;19;20082;-62
2022/09/25 02:28:54;;;;;;;11.15;2.67;;;11.40;81.10;;;;;;9179996;19;20017;-65
2022/09/25 02:32:04;;;;;;;10.73;2.35;;;11.40;81.10;;;;;;9182193;19;20049;-64
2022/09/25 02:35:08;;;;;;;6.75;2.03;;;11.30;81.10;;;;;;9179111;19;20077;-63
2022/09/25 02:38:12;;;;;;;5.95;2.15;;;11.30;81.20;;;;;;9180817;19;20539;-63
2022/09/25 02:41:25;;;;;;;7.75;2.15;;;11.30;81.10;;;;;;9181762;19;20025;-63
2022/09/25 02:44:37;;;;;;;5.65;2.25;;;11.20;81.10;;;;;;9181685;19;20026;-63
2022/09/25 02:47:52;;;;;;;5.45;2.30;;;11.20;81.10;;;;;;9181674;19;20014;-66
2022/09/25 02:51:03;;;;;;;7.35;2.53;;;11.20;81.20;;;;;;9181809;19;20431;-64
2022/09/25 02:54:12;;;;;;;8.77;3.90;;;11.10;81.10;;;;;;9180470;19;20022;-64
2022/09/25 02:57:24;;;;;;;6.13;2.33;;;11.10;81.20;;;;;;9172934;19;20037;-63
2022/09/25 03:00:29;;;;;;;4.05;2.20;;;11.00;81.20;;;;;;9178774;19;20019;-62
2022/09/25 03:03:38;;;;;;;7.47;3.00;;;11.00;81.20;;;;;;9179555;19;20102;-63
2022/09/25 03:06:43;;;;;;;8.05;2.25;;;10.90;81.20;;;;;;9177935;19;20044;-62
2022/09/25 03:09:49;;;;;;;7.93;2.92;;;10.90;81.20;;;;;;9178010;19;20013;-62
2022/09/25 03:12:53;;;;;;;7.72;2.50;;;10.90;81.20;;;;;;9180988;19;20047;-62
2022/09/25 03:15:59;;;;;;;11.35;2.78;;;10.80;81.20;;;;;;9180787;19;20114;-63
2022/09/25 03:19:05;;;;;;;5.30;2.17;;;10.80;81.20;;;;;;9181218;19;20112;-63
2022/09/25 03:22:10;;;;;;;7.50;2.70;;;10.70;81.20;;;;;;9176520;19;20082;-62
2022/09/25 03:25:15;;;;;;;3.83;2.20;;;10.70;81.30;;;;;;9179054;19;20016;-64
2022/09/25 03:28:18;;;;;;;12.35;2.47;;;10.70;81.20;;;;;;9180573;19;20018;-62
2022/09/25 03:31:22;;;;;;;6.32;2.25;;;10.70;81.30;;;;;;9178751;19;20044;-65
2022/09/25 03:34:28;;;;;;;8.13;2.20;;;10.60;81.30;;;;;;9177835;19;20030;-63
2022/09/25 03:37:32;;;;;;;5.35;2.42;;;10.60;81.30;;;;;;9180364;19;20014;-64
2022/09/25 03:40:35;;;;;;;7.05;2.60;;;10.60;81.40;;;;;;9180151;19;20027;-61
2022/09/25 03:43:42;;;;;;;10.27;2.30;;;10.50;81.30;;;;;;9179446;19;20015;-63
2022/09/25 03:46:45;;;;;;;6.00;3.03;;;10.50;81.40;;;;;;9176787;19;20082;-61
2022/09/25 03:49:51;;;;;;;5.95;2.35;;;10.40;81.30;;;;;;9180069;19;20011;-63
2022/09/25 03:52:55;;;;;;;5.70;2.95;;;10.40;81.40;;;;;;9176796;19;20094;-62
2022/09/25 03:55:59;;;;;;;6.82;3.13;;;10.40;81.40;;;;;;9178841;19;20018;-63
2022/09/25 03:59:03;;;;;;;5.47;2.22;;;10.40;81.50;;;;;;9172622;19;20014;-63
2022/09/25 04:02:07;;;;;;;14.25;2.85;;;10.40;81.50;;;;;;9179162;19;20456;-66
2022/09/25 04:05:13;;;;;;;8.02;2.60;;;10.40;81.50;;;;;;9177773;19;20018;-64
2022/09/25 04:08:17;;;;;;;5.90;2.40;;;10.30;81.50;;;;;;9177837;19;20074;-63
2022/09/25 04:11:22;;;;;;;7.47;3.10;;;10.30;81.50;;;;;;9178294;19;20078;-61
2022/09/25 04:14:26;;;;;;;10.45;2.67;;;10.30;81.50;;;;;;9176473;19;20018;-63
2022/09/25 04:17:30;;;;;;;4.70;2.55;;;10.30;81.50;;;;;;9173830;19;20015;-61
2022/09/25 04:20:37;;;;;;;8.45;2.65;;;10.30;81.60;;;;;;9177513;19;20345;-62
2022/09/25 04:23:41;;;;;;;5.70;2.33;;;10.30;81.60;;;;;;9177149;19;20369;-61
2022/09/25 04:26:45;;;;;;;8.55;2.78;;;10.30;81.60;;;;;;9174575;19;20022;-64
2022/09/25 04:29:49;;;;;;;7.78;2.55;;;10.20;81.60;;;;;;9177372;19;20020;-64
2022/09/25 04:36:12;;;;;;;6.25;2.97;;;10.20;81.60;;;;;;9177180;19;20011;-62
2022/09/25 04:39:18;;;;;;;5.65;2.67;;;10.20;81.60;;;;;;9177336;19;20503;-63
2022/09/25 04:42:23;;;;;;;6.25;2.30;;;10.20;81.60;;;;;;9177307;19;20035;-62
2022/09/25 04:45:27;;;;;;;5.05;2.60;;;10.20;81.60;;;;;;9176657;19;20466;-64
2022/09/25 04:48:31;;;;;;;7.97;2.55;;;10.20;81.60;;;;;;9176346;19;20055;-63
2022/09/25 04:51:36;;;;;;;5.65;2.40;;;10.20;81.60;;;;;;9181109;19;20038;-62
2022/09/25 04:54:40;;;;;;;6.43;2.90;;;10.10;81.60;;;;;;9185244;19;20426;-63
2022/09/25 04:57:44;;;;;;;4.60;2.65;;;10.10;81.70;;;;;;9180725;19;20034;-62
2022/09/25 05:01:04;;;;;;;6.60;2.15;;;10.10;81.60;;;;;;9185553;19;20467;-63
2022/09/25 05:04:07;;;;;;;5.35;2.35;;;10.10;81.60;;;;;;9184535;19;20014;-62
2022/09/25 05:07:14;;;;;;;5.53;2.42;;;10.00;81.50;;;;;;9182595;19;20024;-63
2022/09/25 05:10:18;;;;;;;9.80;2.90;;;10.00;81.60;;;;;;9181108;19;20029;-62
2022/09/25 05:13:22;;;;;;;7.18;2.47;;;10.00;81.60;;;;;;9182781;19;20032;-63
2022/09/25 05:16:27;;;;;;;;;;;10.00;81.60;;;;;;9185140;19;20010;-62
2022/09/25 05:19:31;;;;;;;7.05;4.20;;;10.00;81.60;;;;;;9181481;19;20389;-63
2022/09/25 05:22:37;;;;;;;;;;;9.90;81.50;;;;;;9184710;19;20055;-62
2022/09/25 05:25:41;;;;;;;7.07;2.60;;;9.90;81.50;;;;;;9183420;19;19918;-62
2022/09/25 05:28:44;;;;;;;;;;;9.90;81.50;;;;;;9186311;19;20093;-62
2022/09/25 05:31:48;;;;;;;8.75;2.65;;;9.80;81.50;;;;;;9184927;19;20237;-62
2022/09/25 05:34:52;;;;;;;;;;;9.80;81.40;;;;;;9185327;19;20018;-60
2022/09/25 05:37:58;;;;;;;6.18;3.00;;;9.80;81.50;;;;;;9182872;19;20273;-63
2022/09/25 05:41:04;;;;;;;3.58;2.50;;;9.80;81.40;;;;;;9184508;19;20043;-62
2022/09/25 05:44:08;;;;;;;4.03;2.40;;;9.70;81.50;;;;;;9183125;19;20011;-62
2022/09/25 05:47:12;;;;;;;4.28;2.28;;;9.70;81.60;;;;;;9181682;19;20014;-63
2022/09/25 05:50:18;;;;;;;5.32;2.42;;;9.70;81.60;;;;;;9181843;19;20171;-64
2022/09/25 05:53:24;;;;;;;2.58;2.15;;;9.70;81.70;;;;;;9183301;19;20539;-63
2022/09/25 05:56:27;;;;;;;4.15;2.45;;;9.70;81.70;;;;;;9180170;19;20028;-64
2022/09/25 05:59:32;;;;;;;4.80;2.65;;;9.70;81.80;;;;;;9183971;19;20025;-63
2022/09/25 06:02:35;;;;;;;8.48;2.28;;;9.70;81.70;;;;;;9179693;19;20086;-63
2022/09/25 06:05:39;;;;;;;5.07;2.25;;;9.70;81.80;;;;;;9182179;19;20014;-62
2022/09/25 06:08:45;;;;;;;6.53;2.63;;;9.70;81.80;;;;;;9181560;19;20018;-63
2022/09/25 06:11:50;;;;;;;8.10;3.30;;;9.70;81.80;;;;;;9182800;19;20090;-62
2022/09/25 06:14:53;;;;;;;5.65;2.58;;;9.60;81.80;;;;;;9181780;19;20018;-64
2022/09/25 06:17:57;;;;;;;6.20;3.33;;;9.70;81.90;;;;;;9182591;19;20018;-62
2022/09/25 06:21:03;;;;;;;6.38;3.13;;;9.70;81.90;;;;;;9183174;19;20418;-62
2022/09/25 06:24:09;;;;;;;4.82;2.88;;;9.60;81.90;;;;;;9182726;19;20042;-62
2022/09/25 06:27:13;;;;;;;8.63;3.30;;;9.70;82.00;;;;;;9179410;19;20056;-62
2022/09/25 06:30:17;;;;;;;7.90;3.17;;;9.70;82.00;;;;;;9182459;19;20011;-63
2022/09/25 06:33:21;;;;;;;11.13;3.42;;;9.70;82.00;;;;;;9181947;19;20402;-62
2022/09/25 06:36:25;;;;;;;8.82;2.42;;;9.70;82.10;;;;;;9182230;19;20047;-62
2022/09/25 06:39:33;;;;;;;6.60;3.13;;;9.70;82.10;;;;;;9182225;19;20047;-62
2022/09/25 06:42:37;;;;;;;13.05;2.78;;;9.70;82.10;;;;;;9179377;19;20026;-63
2022/09/25 06:45:41;;;;;;;7.78;2.38;;;9.70;82.20;;;;;;9181415;19;20023;-62
2022/09/25 06:48:45;;;;;;;13.07;2.92;;;9.80;82.20;;;;;;9182050;19;20022;-62
2022/09/25 06:51:49;;;;;;;4.40;2.58;;;9.80;82.20;;;;;;9181773;19;20010;-62
2022/09/25 06:54:55;;;;;;;8.18;2.15;;;9.80;82.30;;;;;;9181994;19;20022;-62
2022/09/25 06:57:59;;;;;;;9.90;3.33;;;9.80;82.30;;;;;;9177656;19;20014;-62
2022/09/25 07:01:02;;;;;;;6.93;2.80;;;9.90;82.40;;;;;;9178870;19;20796;-65
2022/09/25 07:04:12;;;;;;;9.32;3.00;;;9.90;82.40;;;;;;9174100;19;20022;-64
2022/09/25 07:07:18;;;;;;;11.13;3.08;;;9.90;82.40;;;;;;9174169;19;20026;-63
2022/09/25 07:10:24;;;;;;;9.55;3.30;;;9.90;82.50;;;;;;9174311;19;20018;-62
2022/09/25 07:13:31;;;;;;;13.93;3.83;;;10.00;82.60;;;;;;9177694;19;20014;-63
2022/09/25 07:16:34;;;;;;;10.93;3.17;;;10.10;82.80;;;;;;9177026;19;20014;-66
2022/09/25 07:19:39;;;;;;;9.70;3.55;;;10.10;82.80;;;;;;9177531;19;20503;-62
2022/09/25 07:22:43;;;;;;;11.07;3.33;;;10.20;82.90;;;;;;9177576;19;20010;-64
2022/09/25 07:25:50;;;;;;;11.15;3.55;;;10.30;83.00;;;;;;9169700;19;20047;-61
2022/09/25 07:28:56;;;;;;;10.82;3.53;;;10.40;83.10;;;;;;9164266;19;20026;-65
2022/09/25 07:32:00;;;;;;;12.88;3.40;;;10.50;83.20;;;;;;9164002;19;20468;-63
2022/09/25 07:35:04;;;;;;;9.50;3.72;;;10.60;83.30;;;;;;9162088;19;20573;-64
2022/09/25 07:38:07;;;;;;;25.10;3.33;;;10.70;83.30;;;;;;9164371;19;20167;-63
2022/09/25 07:41:14;;;;;;;7.20;3.45;;;10.80;83.40;;;;;;9172577;19;20014;-64
2022/09/25 07:44:17;;;;;;;9.93;3.63;;;10.90;83.40;;;;;;9170755;19;20059;-64
2022/09/25 07:47:32;;;;;;;15.95;3.30;;;11.00;83.50;;;;;;9168730;19;20644;-63
2022/09/25 07:50:35;;;;;;;11.90;3.75;;;11.20;83.60;;;;;;9165103;19;20475;-66
2022/09/25 07:53:40;;;;;;;13.85;3.60;;;11.30;83.70;;;;;;9163585;19;20014;-64
2022/09/25 07:56:45;;;;;;;11.20;3.60;;;11.50;83.80;;;;;;9168010;19;20019;-64
2022/09/25 07:59:49;;;;;;;10.10;3.22;;;11.60;83.80;;;;;;9171442;19;20026;-66
2022/09/25 08:02:59;;;;;;;8.23;2.97;;;11.90;83.90;;;;;;9178506;19;20031;-64
2022/09/25 08:06:05;;;;;;;7.20;2.83;;;12.00;84.00;;;;;;9178225;19;20043;-63
2022/09/25 08:09:11;;;;;;;17.08;4.68;;;12.30;84.00;;;;;;9176330;19;20479;-66
2022/09/25 08:12:17;;;;;;;8.18;2.40;;;12.50;84.00;;;;;;9178861;19;20037;-64
2022/09/25 08:15:20;;;;;;;12.63;2.30;;;12.70;84.00;;;;;;9179212;19;20098;-63
2022/09/25 08:18:24;;;;;;;7.50;2.60;;;12.90;83.90;;;;;;9174091;19;20015;-64
2022/09/25 08:21:28;;;;;;;10.35;2.55;;;13.10;83.80;;;;;;9172065;19;20013;-64
2022/09/25 08:24:32;;;;;;;8.57;1.95;;;13.40;83.90;;;;;;9173989;19;20051;-64
2022/09/25 08:27:40;;;;;;;9.38;3.13;;;13.60;83.70;;;;;;9175983;19;20022;-65
2022/09/25 08:30:44;;;;;;;12.00;2.20;;;13.90;83.60;;;;;;9181874;19;20015;-65
2022/09/25 08:33:48;;;;;;;;;;;14.10;83.50;;;;;;9185186;19;20006;-66
2022/09/25 08:36:52;;;;;;;9.90;2.08;;;14.30;83.20;;;;;;9186728;19;19910;-66
2022/09/25 08:39:55;;;;;;;6.60;2.15;;;14.60;83.00;;;;;;9181469;19;20021;-68
2022/09/25 08:43:01;;;;;;;8.48;1.55;;;14.80;82.90;;;;;;9178151;19;20091;-66
2022/09/25 08:49:37;;;;;;;7.95;1.63;;;15.30;82.50;;;;;;9177733;19;20019;-67
2022/09/25 08:52:43;;;;;;;3.53;1.25;;;15.60;82.20;;;;;;9176665;19;20081;-67
2022/09/25 08:59:21;;;;;;;9.48;1.30;;;16.00;81.70;;;;;;9181357;19;20044;-68
2022/09/25 09:02:33;;;;;;;5.55;1.10;;;16.30;81.50;;;;;;9183812;19;20090;-67
2022/09/25 09:05:41;;;;;;;7.40;1.27;;;16.60;81.30;;;;;;9184603;19;20085;-67
2022/09/25 09:08:52;;;;;;;5.13;1.08;;;16.80;80.90;;;;;;9182596;19;20128;-66
2022/09/25 09:11:59;;;;;;;5.35;1.63;;;17.00;80.70;;;;;;9183082;19;20022;-64
2022/09/25 09:15:20;;;;;;;6.63;1.33;;;17.20;80.30;;;;;;9183230;19;20519;-63
2022/09/25 09:18:27;;;;;;;2.22;0.63;;;17.40;79.70;;;;;;9183030;19;20021;-65
2022/09/25 09:21:35;;;;;;;12.60;1.00;;;17.70;79.60;;;;;;9176003;19;20501;-64
2022/09/25 09:24:54;;;;;;;10.43;1.48;;;17.80;79.30;;;;;;9175976;19;20419;-64
2022/09/25 09:28:23;;;;;;;5.38;1.20;;;18.00;78.90;;;;;;9175623;19;20512;-64
2022/09/25 09:31:34;;;;;;;8.73;1.23;;;18.10;78.60;;;;;;9175817;19;20044;-64
2022/09/25 09:34:56;;;;;;;5.65;0.60;;;18.40;78.40;;;;;;9176400;19;20475;-65
2022/09/25 09:38:27;;;;;;;11.18;1.30;;;18.50;77.90;;;;;;9172759;19;20391;-64
2022/09/25 09:41:50;;;;;;;7.15;1.10;;;18.70;77.60;;;;;;9177904;19;20515;-64
2022/09/25 09:45:07;;;;;;;2.30;0.93;;;18.90;77.00;;;;;;9173536;19;20024;-64
2022/09/25 09:48:19;;;;;;;8.00;1.10;;;19.00;76.90;;;;;;9172030;19;20074;-65
2022/09/25 09:51:28;;;;;;;5.25;0.80;;;19.20;76.50;;;;;;9174846;19;20029;-65
2022/09/25 09:54:41;;;;;;;5.53;1.08;;;19.30;76.10;;;;;;9177054;19;20014;-66
2022/09/25 09:57:50;;;;;;;8.95;1.15;;;19.40;75.50;;;;;;9172616;19;20033;-62
2022/09/25 10:00:53;;;;;;;7.80;1.10;;;19.40;75.30;;;;;;9174941;19;20049;-64
2022/09/25 10:04:05;;;;;;;3.53;0.50;;;19.40;75.00;;;;;;9175677;19;20089;-64
2022/09/25 10:07:15;;;;;;;3.65;0.80;;;19.40;74.60;;;;;;9173898;19;20098;-66
2022/09/25 10:10:22;;;;;;;12.88;1.13;;;19.40;74.60;;;;;;9170530;19;20090;-65
2022/09/25 10:13:31;;;;;;;9.50;1.30;;;19.40;74.50;;;;;;9175317;19;20014;-64
2022/09/25 10:16:36;;;;;;;9.50;1.00;;;19.40;74.40;;;;;;9176288;19;20022;-65
2022/09/25 10:19:49;;;;;;;7.05;1.00;;;19.40;74.10;;;;;;9173958;19;20443;-65
2022/09/25 10:22:57;;;;;;;6.93;1.00;;;19.50;73.60;;;;;;9174614;19;20094;-64
2022/09/25 10:26:01;;;;;;;5.38;1.05;;;19.50;73.80;;;;;;9172256;19;20087;-67
2022/09/25 10:29:06;;;;;;;4.38;0.93;;;19.50;73.60;;;;;;9174565;19;20479;-65
2022/09/25 10:32:12;;;;;;;8.60;1.15;;;19.60;73.30;;;;;;9174320;19;20014;-66
2022/09/25 10:35:21;;;;;;;6.38;0.82;;;19.60;73.00;;;;;;9175272;19;20024;-64
2022/09/25 10:38:47;;;;;;;4.07;0.77;;;19.70;72.80;;;;;;9174176;19;20457;-63
2022/09/25 10:41:50;;;;;;;8.40;0.85;;;19.70;72.10;;;;;;9172701;19;20048;-65
2022/09/25 10:44:57;;;;;;;3.60;1.00;;;19.80;72.40;;;;;;9170702;19;20018;-65
2022/09/25 10:51:22;;;;;;;3.85;0.43;;;20.00;72.10;;;;;;9172118;19;20026;-65
2022/09/25 10:54:25;;;;;;;2.67;0.68;;;20.00;71.50;;;;;;9171278;19;20015;-65
2022/09/25 10:57:36;;;;;;;10.35;0.80;;;20.10;71.40;;;;;;9166330;19;20011;-67
2022/09/25 11:00:44;;;;;;;8.48;0.70;;;20.10;71.10;;;;;;9174201;19;20035;-66
2022/09/25 11:03:52;;;;;;;6.25;0.98;;;20.20;70.90;;;;;;9179082;19;20021;-64
2022/09/25 11:07:00;;;;;;;7.93;1.15;;;20.30;70.60;;;;;;9179125;19;20083;-63
2022/09/25 11:10:05;;;;;;;2.85;1.23;;;20.40;70.40;;;;;;9178855;19;20014;-65
2022/09/25 11:13:19;;;;;;;6.25;0.60;;;20.50;70.30;;;;;;9180244;19;20479;-63
2022/09/25 11:16:42;;;;;;;2.83;0.98;;;20.60;69.90;;;;;;9181763;19;20015;-63
2022/09/25 11:19:45;;;;;;;3.80;1.05;;;20.60;69.60;;;;;;9180803;19;20010;-64
2022/09/25 11:22:55;;;;;;;5.78;0.63;;;20.70;69.40;;;;;;9178686;19;20070;-64
2022/09/25 11:26:06;;;;;;;2.78;0.68;;;20.70;69.00;;;;;;9179705;19;20014;-66
2022/09/25 11:29:16;;;;;;;6.25;1.00;;;20.80;68.90;;;;;;9180193;19;20029;-63
2022/09/25 11:32:28;;;;;;;4.10;0.77;;;20.80;68.50;;;;;;9179537;19;20052;-64
2022/09/25 11:35:51;;;;;;;5.15;1.20;;;20.80;68.40;;;;;;9180019;19;20079;-63
2022/09/25 11:42:28;;;;;;;3.03;0.50;;;20.50;68.10;;;;;;9180355;19;20828;-64
2022/09/25 11:45:36;;;;;;;2.05;0.68;;;20.30;68.00;;;;;;9180159;19;20077;-64
2022/09/25 11:48:56;;;;;;;2.65;0.55;;;20.10;68.20;;;;;;9180741;19;20022;-65
2022/09/25 11:52:21;;;;;;;3.72;0.85;;;19.90;68.10;;;;;;9180490;19;20007;-63
2022/09/25 11:55:53;;;;;;;1.85;0.68;;;19.60;67.90;;;;;;9180465;19;20552;-64
2022/09/25 11:59:12;;;;;;;1.25;0.43;;;19.40;68.10;;;;;;9175613;19;20021;-63
2022/09/25 12:02:26;;;;;;;1.88;0.50;;;19.30;68.50;;;;;;9183489;19;20092;-64
2022/09/25 12:05:51;;;;;;;1.40;0.52;;;19.20;68.50;;;;;;9187111;19;20018;-64
2022/09/25 12:09:12;;;;;;;1.35;0.40;;;19.10;68.50;;;;;;9185895;19;20011;-64
2022/09/25 12:12:25;;;;;;;3.13;0.43;;;18.90;68.50;;;;;;9186948;19;20524;-63
2022/09/25 12:15:42;;;;;;;0.68;0.38;;;18.80;68.80;;;;;;9186971;19;20073;-62
2022/09/25 12:19:02;;;;;;;1.80;0.40;;;18.70;69.00;;;;;;9185139;19;20085;-63
2022/09/25 12:22:14;;;;;;;4.38;0.70;;;18.60;69.00;;;;;;9185474;19;20400;-63
2022/09/25 12:25:33;;;;;;;5.95;1.02;;;18.50;69.30;;;;;;9186828;19;20025;-65
2022/09/25 12:28:51;;;;;;;6.82;0.73;;;18.40;69.50;;;;;;9183904;19;20375;-64
2022/09/25 12:32:03;;;;;;;3.15;0.55;;;18.30;70.00;;;;;;9184480;19;20014;-63
2022/09/25 12:35:21;;;;;;;2.38;0.93;;;18.20;69.70;;;;;;9184534;19;20029;-64
2022/09/25 12:38:33;;;;;;;4.50;0.80;;;18.10;69.80;;;;;;9186377;19;20054;-64
2022/09/25 12:41:42;;;;;;;2.25;0.65;;;18.00;69.90;;;;;;9185959;19;20028;-66
2022/09/25 12:44:53;;;;;;;1.83;0.50;;;17.90;70.00;;;;;;9186665;19;20553;-63
2022/09/25 12:48:05;;;;;;;2.05;0.70;;;17.90;70.00;;;;;;9184520;19;20011;-65
2022/09/25 12:51:15;;;;;;;3.85;0.50;;;17.80;70.10;;;;;;9186167;19;20029;-65
2022/09/25 12:54:27;;;;;;;2.75;0.50;;;17.80;70.10;;;;;;9183815;19;20048;-64
2022/09/25 12:57:38;;;;;;;1.08;0.35;;;17.70;70.10;;;;;;9181397;19;20010;-64
2022/09/25 13:00:46;;;;;;;1.85;0.47;;;17.60;70.10;;;;;;9185236;19;20014;-64
2022/09/25 13:04:07;;;;;;;5.82;0.88;;;17.60;70.20;;;;;;9185314;19;20038;-63
2022/09/25 13:07:24;;;;;;;1.55;0.50;;;17.60;70.20;;;;;;9182249;19;20362;-63
2022/09/25 13:10:33;;;;;;;5.25;0.82;;;17.50;70.10;;;;;;9182310;19;20036;-63
2022/09/25 13:13:44;;;;;;;4.25;1.10;;;17.50;70.20;;;;;;9183770;19;20066;-65
2022/09/25 13:16:49;;;;;;;4.05;0.70;;;17.50;70.20;;;;;;9182290;19;20010;-63
2022/09/25 13:19:54;;;;;;;2.50;0.90;;;17.50;70.30;;;;;;9184412;19;20023;-63
2022/09/25 13:23:00;;;;;;;3.25;0.77;;;17.50;70.30;;;;;;9185005;19;20082;-64
2022/09/25 13:26:12;;;;;;;2.75;1.17;;;17.40;70.20;;;;;;9183205;19;20078;-64
2022/09/25 13:29:24;;;;;;;2.78;0.60;;;17.40;70.20;;;;;;9184301;19;20031;-65
2022/09/25 13:32:34;;;;;;;3.65;0.57;;;17.40;70.20;;;;;;9181670;19;20019;-65
2022/09/25 13:35:37;;;;;;;2.88;0.80;;;17.40;70.30;;;;;;9184162;19;20022;-64
2022/09/25 13:42:06;;;;;;;2.03;0.77;;;17.30;70.20;;;;;;9183968;19;20010;-64
2022/09/25 13:45:36;;;;;;;2.60;0.50;;;17.30;70.20;;;;;;9184317;19;20026;-67
2022/09/25 13:48:41;;;;;;;4.45;0.88;;;17.30;70.00;;;;;;9180983;19;20007;-63
2022/09/25 13:51:46;;;;;;;7.82;1.20;;;17.30;70.10;;;;;;9184341;19;20040;-64
2022/09/25 13:54:49;;;;;;;2.72;1.20;;;17.40;70.20;;;;;;9184179;19;20014;-64
2022/09/25 13:58:03;;;;;;;4.35;0.80;;;17.40;70.10;;;;;;9179355;19;20022;-65
2022/09/25 14:01:32;;;;;;;4.70;0.70;;;17.40;69.90;;;;;;9183821;19;20014;-63
2022/09/25 14:04:40;;;;;;;3.00;0.60;;;17.40;70.00;;;;;;9183142;19;20014;-63
2022/09/25 14:07:45;;;;;;;3.35;0.50;;;17.40;69.90;;;;;;9181468;19;20022;-64
2022/09/25 14:10:53;;;;;;;3.63;0.57;;;17.40;69.70;;;;;;9181919;19;20022;-66
2022/09/25 14:13:57;;;;;;;3.15;0.82;;;17.50;69.50;;;;;;9183709;19;20010;-64
2022/09/25 14:17:02;;;;;;;7.82;0.55;;;17.50;69.40;;;;;;9182989;19;20038;-65
2022/09/25 14:20:27;;;;;;;3.30;0.60;;;17.40;69.10;;;;;;9183329;19;20006;-64
2022/09/25 14:23:32;;;;;;;1.20;0.50;;;17.50;68.90;;;;;;9180835;19;20015;-63
2022/09/25 14:26:36;;;;;;;1.10;0.40;;;17.50;69.00;;;;;;9181487;19;20022;-65
2022/09/25 14:29:41;;;;;;;4.80;0.70;;;17.50;68.80;;;;;;9183110;19;20006;-64
2022/09/25 14:32:58;;;;;;;2.10;0.40;;;17.50;68.80;;;;;;9182458;19;20039;-64
2022/09/25 14:36:11;;;;;;;5.80;0.68;;;17.50;68.70;;;;;;9181705;19;20093;-67
2022/09/25 14:39:35;;;;;;;2.67;1.05;;;17.50;68.70;;;;;;9182505;19;20070;-63
2022/09/25 14:42:59;;;;;;;1.23;0.50;;;17.60;68.70;;;;;;9182069;19;20011;-63
2022/09/25 14:46:04;;;;;;;;;;;17.60;68.60;;;;;;9182925;19;20011;-66
2022/09/25 14:49:19;;;;;;;5.15;0.60;;;17.70;69.30;;;;;;9177625;19;19915;-66
2022/09/25 14:52:30;;;;;;;2.85;0.60;;;17.70;68.80;;;;;;9174808;19;20022;-65
2022/09/25 14:55:38;;;;;;;2.33;0.60;;;17.70;68.60;;;;;;9173353;19;20348;-64
2022/09/25 14:58:46;;;;;;;1.13;0.52;;;17.70;68.50;;;;;;9168193;19;20625;-62
2022/09/25 15:01:52;;;;;;;0.77;0.43;;;17.70;68.30;;;;;;9172794;19;20498;-64
2022/09/25 15:04:58;;;;;;;1.92;0.77;;;17.70;68.30;;;;;;9174328;19;20018;-65
2022/09/25 15:08:20;;;;;;;5.10;0.75;;;17.60;68.20;;;;;;9171500;19;20029;-64
2022/09/25 15:11:28;;;;;;;2.55;0.55;;;17.60;68.00;;;;;;9173292;19;20018;-64
2022/09/25 15:14:32;;;;;;;1.90;0.60;;;17.60;68.10;;;;;;9173715;19;20610;-64
2022/09/25 15:17:44;;;;;;;5.20;0.65;;;17.60;68.10;;;;;;9174495;19;20041;-63
2022/09/25 15:20:49;;;;;;;2.28;0.50;;;17.50;68.10;;;;;;9174652;19;20109;-63
2022/09/25 15:23:58;;;;;;;2.95;0.60;;;17.50;68.00;;;;;;9173957;19;20042;-64
2022/09/25 15:27:05;;;;;;;1.65;0.65;;;17.50;67.90;;;;;;9169878;19;20464;-62
2022/09/25 15:30:16;;;;;;;3.45;0.68;;;17.50;68.00;;;;;;9172251;19;20018;-64
2022/09/25 15:33:24;;;;;;;3.05;0.40;;;17.50;67.80;;;;;;9171343;19;20014;-62
2022/09/25 15:36:28;;;;;;;5.55;1.33;;;17.40;67.70;;;;;;9171454;19;20082;-64
2022/09/25 15:39:40;;;;;;;;;;;17.40;67.80;;;;;;9172824;19;20545;-63
2022/09/25 15:42:46;;;;;;;2.63;1.13;;;17.30;67.80;;;;;;9171530;19;19963;-66
2022/09/25 15:45:56;;;;;;;3.58;1.02;;;17.30;67.90;;;;;;9170514;19;20032;-64
2022/09/25 15:49:01;;;;;;;3.33;0.63;;;17.30;67.90;;;;;;9167210;19;20022;-64
2022/09/25 15:52:07;;;;;;;2.97;0.63;;;17.30;68.00;;;;;;9170790;19;20480;-62
2022/09/25 15:55:14;;;;;;;2.58;0.80;;;17.20;67.90;;;;;;9168113;19;20037;-63
2022/09/25 15:58:20;;;;;;;1.58;0.63;;;17.20;68.00;;;;;;9166323;19;20831;-64
2022/09/25 16:04:50;;;;;;;2.75;1.15;;;17.20;68.10;;;;;;9167241;19;20026;-62
2022/09/25 16:08:14;;;;;;;6.95;1.10;;;17.10;68.20;;;;;;9170675;19;20014;-63
2022/09/25 16:11:24;;;;;;;1.55;0.60;;;17.00;68.20;;;;;;9172350;19;20018;-63
2022/09/25 16:14:30;;;;;;;3.15;0.70;;;17.00;68.30;;;;;;9169853;19;20056;-63
2022/09/25 16:17:39;;;;;;;2.22;1.27;;;17.00;68.40;;;;;;9170598;19;20015;-63
2022/09/25 16:20:43;;;;;;;2.35;1.00;;;16.90;68.30;;;;;;9170706;19;20026;-62
2022/09/25 16:23:53;;;;;;;3.80;1.13;;;16.90;68.50;;;;;;9169531;19;20805;-63
2022/09/25 16:27:03;;;;;;;3.88;0.90;;;16.90;68.40;;;;;;9168586;19;20368;-63
2022/09/25 16:30:17;;;;;;;3.92;1.05;;;16.90;68.50;;;;;;9171474;19;20066;-64
2022/09/25 16:33:24;;;;;;;2.40;0.90;;;16.80;68.50;;;;;;9170883;19;20018;-64
2022/09/25 16:36:37;;;;;;;4.45;0.73;;;16.80;68.50;;;;;;9160989;19;20025;-63
2022/09/25 16:39:41;;;;;;;2.17;0.60;;;16.80;68.50;;;;;;9171589;19;20520;-63
2022/09/25 16:42:46;;;;;;;10.05;0.77;;;16.80;68.60;;;;;;9169512;19;20014;-64
2022/09/25 16:45:59;;;;;;;5.05;1.33;;;16.70;68.60;;;;;;9169644;19;20044;-64
2022/09/25 16:49:04;;;;;;;3.10;1.05;;;16.70;69.20;;;;;;9172629;19;20030;-64
2022/09/25 16:52:08;;;;;;;5.50;1.15;;;16.70;68.70;;;;;;9177246;19;20569;-63